Time;durP1;ratioP1;P1;durP2;ratioP2;P2;SDS_P1;SDS_P2;PMS_P1;PMS_P2;Temp;Humidity;BMP_temperature;BMP_pressure;BME280_temperature;BME280_humidity;BME280_pressure;Samples;Min_cycle;Max_cycle;Signal;HPM_P1;HPM_P2
2021/12/31 00:00:40;;;;;;;3.13;2.77;;;13.70;1.00;14.00;101015.00;;;;5012613;28;20836;-79
2021/12/31 00:03:10;;;;;;;4.63;3.00;;;13.70;1.00;14.00;101006.00;;;;5013756;28;20831;-78
2021/12/31 00:05:38;;;;;;;5.20;3.30;;;13.70;1.00;14.00;69376.00;;;;5011167;28;20573;-79
2021/12/31 00:08:07;;;;;;;5.93;3.30;;;13.70;1.00;14.00;69377.00;;;;5013763;28;20489;-78
2021/12/31 00:10:35;;;;;;;3.37;2.90;;;13.80;1.00;14.00;101009.00;;;;5022605;28;20515;-81
2021/12/31 00:13:03;;;;;;;5.93;3.10;;;13.80;1.00;14.10;101016.00;;;;5014821;28;20473;-78
2021/12/31 00:15:32;;;;;;;5.53;2.77;;;13.80;1.00;14.10;101024.00;;;;5011979;28;20839;-78
2021/12/31 00:18:00;;;;;;;3.80;2.97;;;13.80;1.00;14.10;101018.00;;;;5017108;28;20489;-79
2021/12/31 00:20:30;;;;;;;4.07;2.87;;;13.80;1.00;14.10;101018.00;;;;5028226;28;20790;-79
2021/12/31 00:23:06;;;;;;;4.57;3.33;;;13.80;1.00;14.10;101011.00;;;;5024665;28;20463;-78
2021/12/31 00:25:39;;;;;;;4.33;3.20;;;13.80;1.00;14.10;101004.00;;;;5032445;28;20445;-80
2021/12/31 00:28:08;;;;;;;5.20;2.87;;;13.80;1.00;14.00;101019.00;;;;5038663;28;20491;-79
2021/12/31 00:30:38;;;;;;;5.20;2.77;;;13.90;1.00;14.00;69382.00;;;;5024621;28;20461;-78
2021/12/31 00:33:08;;;;;;;4.70;2.83;;;13.80;1.00;14.00;101001.00;;;;5026470;28;20512;-80
2021/12/31 00:35:39;;;;;;;4.83;3.50;;;13.80;1.00;14.00;101025.00;;;;5018256;28;20462;-78
2021/12/31 00:38:08;;;;;;;4.77;3.17;;;13.80;1.00;14.00;101011.00;;;;5013802;28;20515;-78
2021/12/31 00:40:37;;;;;;;6.00;3.00;;;13.80;1.00;14.10;101014.00;;;;5016353;28;20464;-78
2021/12/31 00:43:07;;;;;;;4.97;3.00;;;13.80;1.00;14.10;101019.00;;;;5017492;28;20461;-80
2021/12/31 00:45:39;;;;;;;3.77;2.80;;;13.80;1.00;14.00;101012.00;;;;5018422;28;20499;-79
2021/12/31 00:48:10;;;;;;;6.23;2.93;;;13.80;1.00;14.10;101019.00;;;;5018350;28;20488;-78
2021/12/31 00:50:41;;;;;;;4.07;2.67;;;13.80;1.00;14.10;101023.00;;;;5019028;28;20458;-78
2021/12/31 00:53:10;;;;;;;4.00;3.17;;;13.80;1.00;14.10;69399.00;;;;5016442;28;20446;-78
2021/12/31 00:55:38;;;;;;;5.20;2.83;;;13.90;1.00;14.10;69405.00;;;;5024346;28;20457;-78
2021/12/31 00:58:07;;;;;;;4.60;3.40;;;13.90;1.00;14.20;101024.00;;;;5039356;28;20545;-78
2021/12/31 01:00:36;;;;;;;5.20;3.20;;;13.90;1.00;14.20;101006.00;;;;5022457;28;20461;-79
2021/12/31 01:03:05;;;;;;;4.20;2.70;;;13.90;1.00;14.10;101021.00;;;;5020383;28;20465;-79
2021/12/31 01:05:33;;;;;;;4.87;2.70;;;13.90;1.00;14.20;69413.00;;;;5021960;28;20457;-80
2021/12/31 01:08:03;;;;;;;4.00;2.80;;;13.90;1.00;14.20;101015.00;;;;5021157;28;20485;-78
2021/12/31 01:10:31;;;;;;;5.03;2.93;;;13.90;1.00;14.10;101014.00;;;;5022005;28;20472;-79
2021/12/31 01:13:01;;;;;;;3.40;2.50;;;13.90;1.00;14.10;101010.00;;;;5024294;28;20472;-80
2021/12/31 01:15:35;;;;;;;6.30;3.43;;;13.90;1.00;14.20;101008.00;;;;5021714;28;20472;-80
2021/12/31 01:18:21;;;;;;;4.77;2.70;;;13.90;1.00;14.20;101005.00;;;;5026407;28;20523;-79
2021/12/31 01:20:49;;;;;;;4.93;2.50;;;13.90;1.00;14.20;101006.00;;;;5032037;28;20459;-80
2021/12/31 01:23:19;;;;;;;3.23;2.57;;;13.90;1.00;14.20;101016.00;;;;5032781;28;20982;-79
2021/12/31 01:25:47;;;;;;;4.30;2.67;;;13.90;1.00;14.20;101005.00;;;;5030986;28;20528;-79
2021/12/31 01:28:16;;;;;;;4.03;2.10;;;14.00;1.00;14.20;101014.00;;;;5029801;28;20476;-78
2021/12/31 01:30:44;;;;;;;5.43;2.73;;;14.00;1.00;14.20;101025.00;;;;5033871;28;20461;-78
2021/12/31 01:33:13;;;;;;;8.97;3.70;;;14.00;1.00;14.30;101031.00;;;;5036727;28;20467;-79
2021/12/31 01:35:41;;;;;;;5.87;3.13;;;14.00;1.00;14.30;69433.00;;;;5042052;28;21034;-78
2021/12/31 01:38:09;;;;;;;4.50;2.93;;;14.00;1.00;14.20;101031.00;;;;5022962;28;20487;-78
2021/12/31 01:40:39;;;;;;;4.93;2.53;;;14.00;1.00;14.30;100751.00;;;;5025580;28;20519;-78
2021/12/31 01:43:08;;;;;;;3.70;2.57;;;14.00;1.00;14.30;69433.00;;;;5025330;28;20454;-79
2021/12/31 01:45:43;;;;;;;3.77;2.20;;;14.10;1.00;14.30;101023.00;;;;5026119;28;20457;-77
2021/12/31 01:48:23;;;;;;;4.17;2.60;;;14.00;1.00;14.30;101024.00;;;;5033660;28;20856;-78
2021/12/31 01:50:52;;;;;;;4.67;2.47;;;14.00;1.00;14.30;101021.00;;;;5016290;28;20456;-77
2021/12/31 01:53:23;;;;;;;3.70;2.63;;;14.00;1.00;14.30;101012.00;;;;5013210;28;20469;-77
2021/12/31 01:55:57;;;;;;;5.83;2.50;;;14.10;1.00;14.30;101023.00;;;;5018608;28;20457;-78
2021/12/31 01:58:27;;;;;;;3.37;2.30;;;14.00;1.00;14.30;101033.00;;;;5012683;28;20481;-77
2021/12/31 02:00:58;;;;;;;4.83;2.73;;;14.00;1.00;14.30;101034.00;;;;5026589;28;20460;-78
2021/12/31 02:03:26;;;;;;;5.17;2.80;;;14.00;1.00;14.30;101038.00;;;;5008230;28;20456;-78
2021/12/31 02:05:55;;;;;;;3.70;2.20;;;14.00;1.00;14.30;101041.00;;;;5016241;28;20492;-78
2021/12/31 02:08:23;;;;;;;6.20;2.50;;;14.00;1.00;14.30;101045.00;;;;5024518;28;20503;-78
2021/12/31 02:10:53;;;;;;;4.13;2.30;;;14.00;1.00;14.30;69440.00;;;;5027647;28;20464;-80
2021/12/31 02:13:22;;;;;;;5.83;2.73;;;14.00;1.00;14.30;101031.00;;;;5019006;28;20458;-77
2021/12/31 02:15:50;;;;;;;4.53;2.47;;;14.00;1.00;14.30;101025.00;;;;5021644;28;20836;-78
2021/12/31 02:18:19;;;;;;;5.57;2.53;;;14.10;1.00;14.30;101029.00;;;;5020270;28;20500;-78
2021/12/31 02:20:49;;;;;;;6.13;2.37;;;14.10;1.00;14.30;101032.00;;;;5049620;28;20445;-80
2021/12/31 02:23:20;;;;;;;6.43;2.90;;;14.10;1.00;14.30;101025.00;;;;5016893;28;20488;-79
2021/12/31 02:25:48;;;;;;;5.90;2.00;;;14.10;1.00;14.30;101029.00;;;;5011123;28;20453;-78
2021/12/31 02:28:18;;;;;;;6.83;2.47;;;14.10;1.00;14.30;101034.00;;;;5017001;28;20486;-77
2021/12/31 02:30:47;;;;;;;5.90;3.30;;;14.10;1.00;14.30;101027.00;;;;5010392;28;20454;-78
2021/12/31 02:33:15;;;;;;;6.20;3.00;;;14.10;1.00;14.30;101027.00;;;;5022387;28;20472;-78
2021/12/31 02:35:44;;;;;;;6.10;3.07;;;14.20;1.00;14.30;101019.00;;;;5019953;28;20449;-78
2021/12/31 02:38:14;;;;;;;8.17;3.47;;;14.00;1.00;14.30;101024.00;;;;5026583;28;20878;-79
2021/12/31 02:40:42;;;;;;;6.63;2.40;;;14.00;1.00;14.20;69433.00;;;;5019862;28;20449;-79
2021/12/31 02:43:11;;;;;;;8.10;2.97;;;14.00;1.00;14.20;69433.00;;;;5024524;28;20484;-78
2021/12/31 02:45:41;;;;;;;5.70;3.10;;;14.10;1.00;14.30;101023.00;;;;5017056;28;20446;-80
2021/12/31 02:48:10;;;;;;;4.70;2.87;;;14.00;1.00;14.30;101026.00;;;;5026515;28;20472;-79
2021/12/31 02:50:42;;;;;;;5.17;2.90;;;14.10;1.00;14.30;101025.00;;;;5026041;28;20511;-79
2021/12/31 02:53:15;;;;;;;4.00;2.30;;;14.00;1.00;14.30;101043.00;;;;5023570;28;20460;-80
2021/12/31 02:55:45;;;;;;;5.50;3.10;;;14.00;1.00;14.30;101038.00;;;;5026843;28;20476;-79
2021/12/31 02:58:14;;;;;;;6.70;2.63;;;14.10;1.00;14.30;101038.00;;;;5035482;28;20474;-80
2021/12/31 03:00:44;;;;;;;6.43;3.10;;;14.10;1.00;14.30;101046.00;;;;5025798;28;20461;-79
2021/12/31 03:03:16;;;;;;;4.13;2.53;;;14.00;1.00;14.30;101033.00;;;;5031089;28;20893;-79
2021/12/31 03:05:46;;;;;;;5.30;2.60;;;14.00;1.00;217.30;162872.00;;;;5029698;28;20468;-80
2021/12/31 03:08:17;;;;;;;5.83;2.53;;;14.10;1.00;14.30;101044.00;;;;5030219;28;20841;-80
2021/12/31 03:10:47;;;;;;;6.13;3.13;;;14.10;1.00;14.30;101041.00;;;;5027761;28;20472;-80
2021/12/31 03:13:17;;;;;;;4.43;2.40;;;14.10;1.00;14.30;101036.00;;;;5013563;28;21016;-79
2021/12/31 03:15:45;;;;;;;4.47;2.67;;;14.10;1.00;14.30;101031.00;;;;5013556;28;20476;-79
2021/12/31 03:18:15;;;;;;;5.47;2.50;;;14.10;1.00;14.30;101027.00;;;;5009887;28;20582;-78
2021/12/31 03:20:57;;;;;;;6.90;2.60;;;14.00;1.00;14.30;101037.00;;;;5010205;28;20450;-79
2021/12/31 03:23:28;;;;;;;8.30;2.60;;;14.10;1.00;14.30;101041.00;;;;5020016;28;20457;-79
2021/12/31 03:25:56;;;;;;;5.30;2.70;;;14.10;1.00;14.30;101029.00;;;;5010110;28;20460;-79
2021/12/31 03:28:25;;;;;;;5.87;2.40;;;14.10;1.00;14.30;69442.00;;;;5008860;28;20486;-78
2021/12/31 03:30:54;;;;;;;3.80;2.70;;;14.10;1.00;14.30;101027.00;;;;5027182;28;20453;-79
2021/12/31 03:33:23;;;;;;;5.10;2.80;;;14.10;1.00;14.30;101020.00;;;;5013249;28;20512;-78
2021/12/31 03:35:52;;;;;;;4.30;2.50;;;14.10;1.00;14.30;101021.00;;;;5012371;28;20469;-78
2021/12/31 03:38:20;;;;;;;4.57;2.73;;;14.00;1.00;14.30;101018.00;;;;5016197;28;20481;-78
2021/12/31 03:40:50;;;;;;;4.20;2.53;;;14.00;1.00;14.30;101024.00;;;;5013400;28;20477;-79
2021/12/31 03:43:18;;;;;;;7.03;3.30;;;14.10;1.00;14.40;101016.00;;;;5013478;28;20517;-78
2021/12/31 03:45:50;;;;;;;5.27;2.27;;;14.20;1.00;14.30;101015.00;;;;5010735;28;20461;-78
2021/12/31 03:48:19;;;;;;;6.10;2.80;;;14.20;1.00;14.30;101017.00;;;;5012409;28;20998;-78
2021/12/31 03:50:48;;;;;;;5.07;2.70;;;14.10;1.00;14.30;101009.00;;;;5012567;28;20460;-78
2021/12/31 03:53:17;;;;;;;6.63;2.67;;;14.10;1.00;14.40;101025.00;;;;5015128;28;20445;-79
2021/12/31 03:55:45;;;;;;;5.50;2.50;;;14.10;1.00;14.30;101025.00;;;;5027386;28;20446;-79
2021/12/31 03:58:15;;;;;;;4.70;2.60;;;14.10;1.00;14.30;101025.00;;;;5013094;28;20957;-79
2021/12/31 04:00:45;;;;;;;5.70;3.63;;;14.10;1.00;14.30;101024.00;;;;5013470;28;20460;-79
2021/12/31 04:03:14;;;;;;;6.00;2.90;;;14.10;1.00;14.30;101010.00;;;;5020720;28;20536;-79
2021/12/31 04:05:43;;;;;;;7.47;3.70;;;14.00;1.00;14.20;69430.00;;;;5009194;28;20513;-79
2021/12/31 04:08:12;;;;;;;5.60;3.10;;;14.00;1.00;14.20;101007.00;;;;5008260;28;20480;-77
2021/12/31 04:10:40;;;;;;;7.60;3.00;;;14.00;1.00;14.20;101003.00;;;;5007900;28;20481;-79
2021/12/31 04:13:08;;;;;;;7.47;3.10;;;13.90;1.00;14.10;100998.00;;;;5009357;28;21021;-79
2021/12/31 04:15:38;;;;;;;3.80;2.83;;;13.80;1.00;14.10;101007.00;;;;5009956;28;20910;-78
2021/12/31 04:18:07;;;;;;;6.77;3.60;;;13.80;1.00;14.10;101000.00;;;;5015266;28;20903;-78
2021/12/31 04:20:42;;;;;;;5.73;3.50;;;13.80;1.00;14.10;100995.00;;;;5014658;28;20480;-78
2021/12/31 04:23:24;;;;;;;8.43;3.70;;;13.80;1.00;14.10;100989.00;;;;5012173;28;21173;-78
2021/12/31 04:25:53;;;;;;;9.17;3.70;;;13.80;1.00;14.10;100994.00;;;;5012228;28;20446;-78
2021/12/31 04:28:21;;;;;;;5.87;3.03;;;13.80;1.00;14.10;100983.00;;;;5017377;28;20481;-77
2021/12/31 04:30:51;;;;;;;7.60;3.27;;;13.80;1.00;14.10;100983.00;;;;5020258;28;20512;-80
2021/12/31 04:33:20;;;;;;;6.30;3.73;;;13.80;1.00;14.10;100983.00;;;;5018836;28;20480;-78
2021/12/31 04:35:48;;;;;;;5.97;3.57;;;13.80;1.00;52.70;162741.00;;;;5012669;28;20481;-78
2021/12/31 04:38:17;;;;;;;5.90;3.60;;;13.70;1.00;13.90;100994.00;;;;5011725;28;20492;-77
2021/12/31 04:40:45;;;;;;;3.90;3.03;;;13.70;1.00;13.90;100988.00;;;;5008580;28;20479;-78
2021/12/31 04:43:13;;;;;;;4.50;3.57;;;13.60;1.00;13.90;100978.00;;;;5010893;28;20521;-77
2021/12/31 04:45:41;;;;;;;7.30;3.73;;;13.50;1.00;13.80;100969.00;;;;5022853;28;20453;-79
2021/12/31 04:48:11;;;;;;;5.20;3.20;;;13.40;1.00;13.70;100985.00;;;;5020055;28;20496;-79
2021/12/31 04:50:40;;;;;;;5.13;3.30;;;13.40;1.00;13.60;100968.00;;;;5025463;28;20476;-78
2021/12/31 04:53:08;;;;;;;7.90;3.63;;;13.30;1.00;13.60;100978.00;;;;5029128;28;20464;-80
2021/12/31 04:55:36;;;;;;;5.80;3.50;;;13.20;1.00;13.50;100968.00;;;;5049836;28;20455;-80
2021/12/31 04:58:04;;;;;;;4.50;3.50;;;13.20;1.00;13.50;100967.00;;;;5039871;28;20486;-77
2021/12/31 05:00:33;;;;;;;6.40;3.90;;;13.10;1.00;13.50;100962.00;;;;5027743;28;20990;-78
2021/12/31 05:03:08;;;;;;;4.77;3.60;;;13.10;1.00;13.50;100955.00;;;;5020930;28;20456;-78
2021/12/31 05:05:38;;;;;;;9.33;4.20;;;13.10;1.00;13.40;100951.00;;;;5019371;28;20452;-79
2021/12/31 05:08:07;;;;;;;6.37;3.10;;;13.00;1.00;13.30;100951.00;;;;5018105;28;20496;-76
2021/12/31 05:10:35;;;;;;;6.90;4.13;;;12.90;1.00;13.30;100953.00;;;;5018295;28;20468;-78
2021/12/31 05:13:05;;;;;;;6.23;3.63;;;13.00;1.00;13.30;69226.00;;;;5017750;28;21223;-76
2021/12/31 05:15:37;;;;;;;6.67;3.90;;;13.00;1.00;13.40;100971.00;;;;5016749;28;20469;-76
2021/12/31 05:18:06;;;;;;;6.23;4.10;;;13.00;1.00;13.40;100901.00;;;;5018638;28;20547;-79
2021/12/31 05:20:34;;;;;;;6.33;4.20;;;13.10;1.00;13.50;100985.00;;;;5018331;28;20460;-78
2021/12/31 05:23:03;;;;;;;7.63;4.10;;;13.20;1.00;13.50;101007.00;;;;5024219;28;20482;-76
2021/12/31 05:25:32;;;;;;;9.40;4.10;;;13.20;1.00;13.60;100991.00;;;;5027112;28;20452;-77
2021/12/31 05:28:00;;;;;;;7.93;4.30;;;13.30;1.00;13.70;100977.00;;;;5015145;28;20481;-77
2021/12/31 05:30:29;;;;;;;9.90;4.10;;;13.30;1.00;13.70;100991.00;;;;5027541;28;20468;-76
2021/12/31 05:32:58;;;;;;;7.30;3.97;;;13.40;1.00;13.70;100989.00;;;;5034250;28;20445;-77
2021/12/31 05:35:26;;;;;;;6.03;3.47;;;13.40;1.00;13.70;100980.00;;;;5009448;28;20458;-80
2021/12/31 05:37:54;;;;;;;5.83;4.07;;;13.40;1.00;13.70;100986.00;;;;5007777;28;20472;-79
2021/12/31 05:40:24;;;;;;;6.27;3.80;;;13.40;1.00;13.70;100988.00;;;;5008185;28;20477;-80
2021/12/31 05:42:53;;;;;;;4.57;3.87;;;13.40;1.00;-80.10;216866.00;;;;5007489;28;20467;-80
2021/12/31 05:45:21;;;;;;;5.43;4.60;;;13.40;1.00;13.70;100993.00;;;;5008554;28;20449;-81
2021/12/31 05:47:57;;;;;;;6.90;4.43;;;13.40;1.00;13.70;100985.00;;;;5006477;28;20484;-81
2021/12/31 05:50:32;;;;;;;5.70;3.90;;;13.40;1.00;13.70;100989.00;;;;5018140;28;21047;-76
2021/12/31 05:53:01;;;;;;;7.10;3.97;;;13.40;1.00;13.70;101004.00;;;;5007692;28;20461;-78
2021/12/31 05:55:31;;;;;;;5.10;3.83;;;13.40;1.00;13.70;101002.00;;;;5010553;28;20985;-78
2021/12/31 05:58:01;;;;;;;6.40;3.80;;;13.40;1.00;13.70;101006.00;;;;5009858;28;20477;-80
2021/12/31 06:00:30;;;;;;;4.33;3.53;;;13.40;1.00;13.70;101004.00;;;;5011162;28;20479;-80
2021/12/31 06:02:59;;;;;;;5.67;3.93;;;13.40;1.00;13.70;101015.00;;;;5013587;28;20480;-80
2021/12/31 06:05:28;;;;;;;9.97;4.03;;;13.40;1.00;13.70;101007.00;;;;5013727;28;20453;-77
2021/12/31 06:07:58;;;;;;;6.80;4.00;;;13.30;1.00;13.60;100999.00;;;;5013331;28;20485;-76
2021/12/31 06:10:27;;;;;;;6.43;4.40;;;13.30;1.00;13.50;101011.00;;;;5024110;28;20477;-76
2021/12/31 06:13:00;;;;;;;6.57;4.30;;;13.20;1.00;13.40;101011.00;;;;5012490;28;20548;-79
2021/12/31 06:15:29;;;;;;;7.13;4.37;;;13.10;1.00;13.30;101000.00;;;;5014652;28;20465;-76
2021/12/31 06:17:58;;;;;;;8.23;4.40;;;13.00;1.00;13.20;100994.00;;;;5031717;28;20469;-76
2021/12/31 06:20:28;;;;;;;8.00;4.97;;;12.80;1.00;13.10;100993.00;;;;5038042;28;20451;-76
2021/12/31 06:22:58;;;;;;;10.13;5.00;;;12.70;1.00;13.10;101006.00;;;;5042928;28;20453;-75
2021/12/31 06:25:28;;;;;;;8.77;4.20;;;12.70;1.00;13.00;100599.00;;;;5045975;28;20471;-75
2021/12/31 06:27:57;;;;;;;5.77;4.20;;;12.70;1.00;13.00;100995.00;;;;5055364;28;20488;-77
2021/12/31 06:30:26;;;;;;;6.83;4.70;;;12.50;1.00;12.90;100997.00;;;;5035112;28;20491;-76
2021/12/31 06:32:54;;;;;;;8.20;5.43;;;12.50;1.00;12.80;101002.00;;;;5026737;28;20450;-76
2021/12/31 06:35:24;;;;;;;7.67;5.37;;;12.50;1.00;12.80;101004.00;;;;5032040;28;20467;-79
2021/12/31 06:37:56;;;;;;;7.23;5.47;;;12.40;1.00;12.80;101021.00;;;;5029974;28;20929;-79
2021/12/31 06:40:25;;;;;;;6.47;4.50;;;12.50;1.00;12.70;101017.00;;;;5029177;28;20466;-76
2021/12/31 06:42:53;;;;;;;6.50;4.70;;;12.40;1.00;12.70;101002.00;;;;5031907;28;22237;-79
2021/12/31 06:45:23;;;;;;;6.23;5.30;;;12.30;1.00;12.70;101003.00;;;;5047526;28;20476;-77
2021/12/31 06:47:51;;;;;;;6.10;4.60;;;12.20;1.00;12.70;101005.00;;;;5035940;28;21352;-78
2021/12/31 06:50:20;;;;;;;8.33;5.43;;;12.30;1.00;12.60;101017.00;;;;5036105;28;20557;-78
2021/12/31 06:52:48;;;;;;;6.83;4.00;;;12.20;1.00;12.60;101013.00;;;;5027871;28;20461;-77
2021/12/31 06:55:17;;;;;;;6.97;4.40;;;12.20;1.00;12.50;101009.00;;;;5022740;28;20933;-78
2021/12/31 06:57:46;;;;;;;6.43;5.23;;;12.20;1.00;12.50;69040.00;;;;5021343;28;20522;-78
2021/12/31 07:00:15;;;;;;;7.70;5.60;;;12.10;1.00;12.50;101018.00;;;;5019521;28;20905;-77
2021/12/31 07:02:45;;;;;;;8.40;4.83;;;12.10;1.00;12.50;101005.00;;;;5018442;28;20464;-81
2021/12/31 07:05:13;;;;;;;7.47;5.07;;;12.10;1.00;12.50;101012.00;;;;5018076;28;20452;-78
2021/12/31 07:07:41;;;;;;;7.43;5.27;;;12.10;1.00;12.40;101005.00;;;;5018434;28;20460;-80
2021/12/31 07:10:10;;;;;;;7.93;5.70;;;12.10;1.00;12.40;101013.00;;;;5018436;28;20495;-76
2021/12/31 07:12:38;;;;;;;8.50;6.03;;;12.00;1.00;12.40;101022.00;;;;5020221;28;20456;-78
2021/12/31 07:15:07;;;;;;;6.40;5.20;;;12.00;1.00;12.40;101002.00;;;;5018673;28;20466;-78
2021/12/31 07:17:35;;;;;;;8.63;5.20;;;11.90;1.00;12.30;69004.00;;;;5014767;28;20480;-80
2021/12/31 07:20:07;;;;;;;6.33;5.30;;;11.90;1.00;12.30;101011.00;;;;5019854;28;20457;-78
2021/12/31 07:22:36;;;;;;;5.97;5.07;;;12.00;1.00;12.30;101004.00;;;;5019231;28;20470;-78
2021/12/31 07:25:06;;;;;;;9.60;5.03;;;11.90;1.00;12.30;101004.00;;;;5019770;28;21398;-78
2021/12/31 07:27:34;;;;;;;6.57;4.50;;;11.90;1.00;12.30;101012.00;;;;5018830;28;20468;-79
2021/12/31 07:30:04;;;;;;;6.70;4.83;;;11.90;1.00;12.30;101008.00;;;;5022659;28;20456;-77
2021/12/31 07:32:36;;;;;;;8.40;5.07;;;11.90;1.00;12.20;101008.00;;;;5024216;28;20489;-77
2021/12/31 07:35:07;;;;;;;7.13;4.90;;;11.90;1.00;12.20;101005.00;;;;5018909;28;20457;-79
2021/12/31 07:37:37;;;;;;;7.43;4.70;;;11.80;1.00;12.20;68979.00;;;;5029129;28;20470;-78
2021/12/31 07:40:10;;;;;;;10.40;5.33;;;11.80;1.00;12.30;101001.00;;;;5012348;28;20465;-79
2021/12/31 07:42:38;;;;;;;7.10;4.40;;;11.90;1.00;12.20;101001.00;;;;5013250;28;20472;-79
2021/12/31 07:45:08;;;;;;;8.00;4.40;;;11.80;1.00;12.20;101004.00;;;;5015536;28;20465;-76
2021/12/31 07:47:36;;;;;;;8.97;5.17;;;11.80;1.00;12.30;100994.00;;;;5024449;28;20493;-78
2021/12/31 07:50:10;;;;;;;7.93;5.00;;;11.80;1.00;12.20;101003.00;;;;5015688;28;20555;-78
2021/12/31 07:52:38;;;;;;;8.07;5.50;;;11.90;1.00;12.30;101001.00;;;;5016697;28;20484;-79
2021/12/31 07:55:07;;;;;;;5.30;4.70;;;11.80;1.00;12.30;100992.00;;;;5015658;28;20462;-76
2021/12/31 07:57:36;;;;;;;8.80;5.17;;;11.90;1.00;12.30;101008.00;;;;5019126;28;20493;-77
2021/12/31 08:00:07;;;;;;;4.90;4.40;;;11.90;1.00;12.30;101006.00;;;;5026359;28;20553;-78
2021/12/31 08:02:38;;;;;;;11.00;4.53;;;11.90;1.00;12.30;101009.00;;;;5026335;28;20506;-77
2021/12/31 08:05:10;;;;;;;7.57;4.47;;;11.90;1.00;12.40;101019.00;;;;5026606;28;21369;-80
2021/12/31 08:07:39;;;;;;;6.47;4.00;;;11.90;1.00;12.40;101013.00;;;;5028283;28;20487;-80
2021/12/31 08:10:09;;;;;;;5.63;4.53;;;12.00;1.00;12.50;101022.00;;;;5019969;28;20457;-79
2021/12/31 08:12:57;;;;;;;8.00;4.77;;;12.00;1.00;12.50;101021.00;;;;5024259;28;20485;-79
2021/12/31 08:15:25;;;;;;;6.30;5.30;;;12.10;1.00;12.60;69048.00;;;;5023980;28;20468;-79
2021/12/31 08:17:55;;;;;;;6.23;3.93;;;12.10;1.00;12.60;101005.00;;;;5028345;28;20464;-80
2021/12/31 08:20:29;;;;;;;8.33;5.00;;;12.10;1.00;12.60;101010.00;;;;5028658;28;20458;-80
2021/12/31 08:23:06;;;;;;;11.63;5.20;;;12.30;1.00;12.70;101010.00;;;;5026786;28;20931;-78
2021/12/31 08:25:34;;;;;;;6.70;4.70;;;12.30;1.00;12.70;101014.00;;;;5032440;28;20460;-79
2021/12/31 08:28:03;;;;;;;5.30;3.93;;;12.30;1.00;12.70;101014.00;;;;5015280;28;20482;-78
2021/12/31 08:30:32;;;;;;;6.17;4.00;;;12.30;1.00;12.70;101024.00;;;;5014230;28;20543;-78
2021/12/31 08:33:01;;;;;;;6.60;3.80;;;12.40;1.00;12.80;101024.00;;;;5031109;28;20493;-77
2021/12/31 08:35:31;;;;;;;6.37;4.20;;;12.40;1.00;12.80;101010.00;;;;5036232;28;20450;-78
2021/12/31 08:38:00;;;;;;;5.33;3.93;;;12.40;1.00;12.90;101010.00;;;;5040574;28;20457;-78
2021/12/31 08:40:28;;;;;;;6.20;4.47;;;12.60;1.00;12.90;101016.00;;;;5034679;28;20449;-78
2021/12/31 08:42:56;;;;;;;4.80;4.10;;;12.50;1.00;12.90;101026.00;;;;5029865;28;20459;-77
2021/12/31 08:45:33;;;;;;;7.30;4.50;;;12.50;1.00;12.90;101027.00;;;;5033199;28;20551;-78
2021/12/31 08:48:04;;;;;;;9.87;3.63;;;12.60;1.00;12.90;101023.00;;;;5032271;28;20468;-78
2021/12/31 08:50:34;;;;;;;4.80;3.87;;;12.60;1.00;13.00;101024.00;;;;5033127;28;20556;-79
2021/12/31 08:53:03;;;;;;;5.47;3.70;;;12.60;1.00;13.00;101017.00;;;;5015696;28;20485;-79
2021/12/31 08:55:32;;;;;;;6.40;4.07;;;12.70;1.00;13.10;101014.00;;;;5014345;28;20461;-78
2021/12/31 08:58:00;;;;;;;5.40;4.20;;;12.70;1.00;13.10;101016.00;;;;5013776;28;20482;-79
2021/12/31 09:00:29;;;;;;;5.37;3.63;;;12.80;1.00;13.10;101020.00;;;;5012176;28;20461;-79
2021/12/31 09:02:57;;;;;;;6.67;3.23;;;12.80;1.00;13.20;101008.00;;;;5013715;28;20465;-79
2021/12/31 09:05:27;;;;;;;8.70;4.40;;;12.80;1.00;13.20;101017.00;;;;5011689;28;20506;-79
2021/12/31 09:07:57;;;;;;;6.00;4.10;;;12.80;1.00;13.20;101009.00;;;;5015567;28;20462;-78
2021/12/31 09:10:26;;;;;;;6.67;4.63;;;12.90;1.00;13.30;101010.00;;;;5016617;28;20899;-79
2021/12/31 09:12:54;;;;;;;6.17;3.73;;;12.90;1.00;13.30;101026.00;;;;5035942;28;20853;-79
2021/12/31 09:15:22;;;;;;;5.43;4.30;;;13.00;1.00;13.30;69225.00;;;;5036242;28;21064;-80
2021/12/31 09:17:51;;;;;;;4.70;3.67;;;13.00;1.00;13.30;101013.00;;;;5012239;28;20474;-80
2021/12/31 09:20:19;;;;;;;5.87;4.20;;;13.00;1.00;13.40;101018.00;;;;5011913;28;20488;-79
2021/12/31 09:22:48;;;;;;;7.50;4.30;;;13.10;1.00;13.50;101014.00;;;;5014644;28;20457;-78
2021/12/31 09:25:18;;;;;;;4.33;3.67;;;13.30;1.00;13.50;101007.00;;;;5012071;28;20545;-79
2021/12/31 09:27:46;;;;;;;7.37;4.30;;;13.20;1.00;13.50;100997.00;;;;5013931;28;20460;-79
2021/12/31 09:30:14;;;;;;;4.03;3.43;;;13.20;1.00;13.50;101008.00;;;;5029099;28;20437;-77
2021/12/31 09:32:43;;;;;;;6.60;3.90;;;13.20;1.00;13.50;69272.00;;;;5015158;28;20478;-78
2021/12/31 09:35:11;;;;;;;4.37;3.80;;;13.30;1.00;13.50;101008.00;;;;5012665;28;20469;-77
2021/12/31 09:37:40;;;;;;;5.30;4.27;;;13.30;1.00;217.30;162584.00;;;;5022042;28;20482;-77
2021/12/31 09:40:11;;;;;;;5.17;3.70;;;13.40;1.00;13.60;100985.00;;;;5024964;28;20548;-77
2021/12/31 09:42:46;;;;;;;8.73;4.30;;;13.30;1.00;13.70;101004.00;;;;5027652;28;20433;-77
2021/12/31 09:45:16;;;;;;;5.17;4.40;;;13.50;1.00;13.70;101003.00;;;;5024543;28;20440;-79
2021/12/31 09:47:45;;;;;;;5.40;3.97;;;13.40;1.00;13.80;101020.00;;;;5017919;28;20568;-78
2021/12/31 09:50:18;;;;;;;5.83;3.87;;;13.50;1.00;14.00;101024.00;;;;5018962;28;20449;-78
2021/12/31 09:52:46;;;;;;;4.87;3.83;;;13.70;1.00;14.00;101013.00;;;;5019768;28;20501;-80
2021/12/31 09:55:14;;;;;;;4.50;3.70;;;13.70;1.00;14.00;101012.00;;;;5018374;28;20953;-80
2021/12/31 09:57:44;;;;;;;5.43;3.90;;;13.70;1.00;14.00;101005.00;;;;5020014;28;20452;-81
2021/12/31 10:00:13;;;;;;;6.13;4.47;;;13.70;1.00;14.00;101007.00;;;;5033653;28;20540;-78
2021/12/31 10:02:42;;;;;;;6.10;4.50;;;13.70;1.00;14.00;101016.00;;;;5018754;28;20541;-80
2021/12/31 10:05:12;;;;;;;5.87;4.60;;;13.70;1.00;14.00;101024.00;;;;5022348;28;20490;-78
2021/12/31 10:07:44;;;;;;;6.63;4.47;;;13.70;1.00;13.90;101020.00;;;;5020317;28;20545;-78
2021/12/31 10:10:15;;;;;;;5.73;4.43;;;13.60;1.00;13.90;101024.00;;;;5017953;28;20468;-79
2021/12/31 10:12:51;;;;;;;5.20;3.77;;;13.60;1.00;14.00;101035.00;;;;5021354;28;20465;-78
2021/12/31 10:15:24;;;;;;;6.40;5.80;;;13.70;1.00;14.00;101045.00;;;;5034338;28;20440;-78
2021/12/31 10:17:53;;;;;;;5.77;4.30;;;13.70;1.00;14.10;101036.00;;;;5025339;28;20541;-79
2021/12/31 10:20:23;;;;;;;5.00;3.90;;;13.80;1.00;13.90;101038.00;;;;5035253;28;20452;-77
2021/12/31 10:22:52;;;;;;;7.50;4.83;;;13.60;1.00;13.90;101040.00;;;;5039067;28;20906;-84
2021/12/31 10:25:25;;;;;;;7.10;4.37;;;13.60;1.00;14.10;101035.00;;;;5040720;28;20425;-86
2021/12/31 10:28:11;;;;;;;7.07;4.27;;;13.80;1.00;14.30;101043.00;;;;5039380;28;20545;-81
2021/12/31 10:30:39;;;;;;;6.23;3.80;;;14.00;1.00;14.40;101033.00;;;;5042609;28;20452;-81
2021/12/31 10:33:09;;;;;;;5.90;3.40;;;14.20;1.00;14.50;101035.00;;;;5037463;28;20480;-81
2021/12/31 10:35:42;;;;;;;4.90;3.60;;;14.30;1.00;14.60;69507.00;;;;5042670;28;21281;-80
2021/12/31 10:38:12;;;;;;;5.87;3.70;;;14.40;1.00;14.60;101035.00;;;;5037510;28;20509;-80
2021/12/31 10:40:44;;;;;;;6.20;3.90;;;14.40;1.00;14.50;101037.00;;;;5033769;28;20491;-80
2021/12/31 10:43:17;;;;;;;5.17;4.10;;;14.30;1.00;14.80;69546.00;;;;5021750;28;20452;-79
2021/12/31 10:45:58;;;;;;;7.43;3.90;;;14.50;1.00;14.70;101033.00;;;;5024288;28;20926;-79
2021/12/31 10:48:42;;;;;;;5.13;3.70;;;14.50;1.00;14.60;69513.00;;;;5023160;28;20472;-78
2021/12/31 10:51:12;;;;;;;5.70;3.80;;;14.40;1.00;14.70;100980.00;;;;5038390;28;20448;-80
2021/12/31 10:53:44;;;;;;;9.23;3.33;;;14.50;1.00;14.80;101025.00;;;;5022630;28;20495;-81
2021/12/31 10:56:15;;;;;;;5.47;3.40;;;14.60;1.00;14.90;101025.00;;;;5022073;28;20449;-79
2021/12/31 10:58:46;;;;;;;3.80;3.07;;;14.70;1.00;14.80;101034.00;;;;5025237;28;21074;-79
2021/12/31 11:01:17;;;;;;;4.90;3.50;;;14.70;1.00;15.10;69630.00;;;;5025106;28;20473;-80
2021/12/31 11:03:45;;;;;;;6.30;4.43;;;14.80;1.00;15.10;101021.00;;;;5031538;28;20561;-80
2021/12/31 11:06:14;;;;;;;5.03;3.93;;;14.80;1.00;14.90;101027.00;;;;5029383;28;20442;-78